createdAt,value
2023-04-12T00:01:27.786Z,5.90
2023-04-12T00:03:56.431Z,6.00
2023-04-12T00:06:27.757Z,6.40
2023-04-12T00:08:56.424Z,6.60
2023-04-12T00:11:26.332Z,6.60
2023-04-12T00:13:55.242Z,6.30
2023-04-12T00:16:24.948Z,7.10
2023-04-12T00:18:54.550Z,6.60
2023-04-12T00:21:23.979Z,6.90
2023-04-12T00:23:52.408Z,6.70
2023-04-12T00:26:21.906Z,7.20
2023-04-12T00:28:50.579Z,7.10
2023-04-12T00:31:21.789Z,7.80
2023-04-12T00:33:50.046Z,7.20
2023-04-12T00:36:23.846Z,8.20
2023-04-12T00:38:52.416Z,7.60
2023-04-12T00:41:21.127Z,8.10
2023-04-12T00:43:49.955Z,8.60
2023-04-12T00:46:19.955Z,8.50
2023-04-12T00:48:48.516Z,8.30
2023-04-12T00:51:22.492Z,7.70
2023-04-12T00:53:50.773Z,8.20
2023-04-12T00:56:23.782Z,7.90
2023-04-12T00:58:52.498Z,8.70
2023-04-12T01:01:26.155Z,8.20
2023-04-12T01:04:01.203Z,7.70
2023-04-12T01:06:32.529Z,8.30
2023-04-12T01:09:15.845Z,9.30
2023-04-12T01:12:05.723Z,8.40
2023-04-12T01:14:38.170Z,8.30
2023-04-12T01:17:07.592Z,8.30
2023-04-12T01:19:53.871Z,8.10
2023-04-12T01:22:59.906Z,8.80
2023-04-12T01:25:39.594Z,8.50
2023-04-12T01:28:10.415Z,8.70
2023-04-12T01:30:38.890Z,9.40
2023-04-12T01:33:07.483Z,8.10
2023-04-12T01:35:36.978Z,10.10
2023-04-12T01:38:05.188Z,9.00
2023-04-12T01:40:33.470Z,8.20
2023-04-12T01:43:12.063Z,8.50
2023-04-12T01:45:40.527Z,8.60
2023-04-12T01:48:10.886Z,8.30
2023-04-12T01:51:06.536Z,8.80
2023-04-12T01:53:38.805Z,9.30
2023-04-12T01:56:09.311Z,8.20
2023-04-12T01:58:40.497Z,8.50
2023-04-12T02:01:09.278Z,9.50
2023-04-12T02:03:42.706Z,7.70
2023-04-12T02:06:11.330Z,7.60
2023-04-12T02:08:39.523Z,8.30
2023-04-12T02:11:14.849Z,8.00
2023-04-12T02:13:45.986Z,7.60
2023-04-12T02:16:14.420Z,8.10
2023-04-12T02:18:43.915Z,8.80
2023-04-12T02:21:14.364Z,8.00
2023-04-12T02:23:45.156Z,8.10
2023-04-12T02:26:13.520Z,8.40
2023-04-12T02:28:43.062Z,7.70
2023-04-12T02:31:17.189Z,7.60
2023-04-12T02:33:46.772Z,7.70
2023-04-12T02:36:15.562Z,8.40
2023-04-12T02:38:44.589Z,7.60
2023-04-12T02:41:20.617Z,8.30
2023-04-12T02:43:49.180Z,8.20
2023-04-12T02:46:25.444Z,8.20
2023-04-12T02:48:57.527Z,8.70
2023-04-12T02:51:33.386Z,8.00
2023-04-12T02:54:04.151Z,8.70
2023-04-12T02:56:41.134Z,6.90
2023-04-12T02:59:29.237Z,8.70
2023-04-12T03:02:09.243Z,7.20
2023-04-12T03:04:40.263Z,7.80
2023-04-12T03:07:14.116Z,7.70
2023-04-12T03:09:49.846Z,7.90
2023-04-12T03:12:18.526Z,7.60
2023-04-12T03:15:08.175Z,8.10
2023-04-12T03:17:37.220Z,7.30
2023-04-12T03:20:12.053Z,7.60
2023-04-12T03:22:45.823Z,6.80
2023-04-12T03:25:14.107Z,7.40
2023-04-12T03:27:47.284Z,8.10
2023-04-12T03:30:17.152Z,7.60
2023-04-12T03:32:46.172Z,7.10
2023-04-12T03:35:17.073Z,7.20
2023-04-12T03:37:46.699Z,7.40
2023-04-12T03:40:14.941Z,7.30
2023-04-12T03:42:48.656Z,8.00
2023-04-12T03:45:17.267Z,8.40
2023-04-12T03:47:49.882Z,8.70
2023-04-12T03:50:20.834Z,8.30
2023-04-12T03:52:55.262Z,7.70
2023-04-12T03:55:26.351Z,8.50
2023-04-12T03:57:56.645Z,7.60
2023-04-12T04:00:25.748Z,7.40
2023-04-12T04:05:48.097Z,7.90
2023-04-12T04:08:20.197Z,8.00
2023-04-12T04:10:52.770Z,8.20
2023-04-12T04:13:35.179Z,8.00
2023-04-12T04:16:07.509Z,7.60
2023-04-12T04:18:36.240Z,7.60
2023-04-12T04:21:09.667Z,7.60
2023-04-12T04:23:39.144Z,6.80
2023-04-12T04:26:10.621Z,8.00
2023-04-12T04:28:46.460Z,8.30
2023-04-12T04:31:18.078Z,7.10
2023-04-12T04:33:50.979Z,7.90
2023-04-12T04:36:21.462Z,7.70
2023-04-12T04:38:59.530Z,7.40
2023-04-12T04:41:41.613Z,7.10
2023-04-12T04:44:36.254Z,8.20
2023-04-12T04:47:08.768Z,7.60
2023-04-12T04:49:39.591Z,7.80
2023-04-12T04:52:19.704Z,7.50
2023-04-12T04:54:48.794Z,7.40
2023-04-12T04:57:22.525Z,6.70
2023-04-12T04:59:51.762Z,7.30
2023-04-12T05:02:21.551Z,7.10
2023-04-12T05:04:50.066Z,7.90
2023-04-12T05:07:20.523Z,7.00
2023-04-12T05:09:49.673Z,6.90
2023-04-12T05:12:21.574Z,7.00
2023-04-12T05:15:10.498Z,6.50
2023-04-12T05:17:40.128Z,6.80
2023-04-12T05:20:10.951Z,6.80
2023-04-12T05:22:40.538Z,7.30
2023-04-12T05:25:09.288Z,6.70
2023-04-12T05:27:44.408Z,6.90
2023-04-12T05:30:15.704Z,6.40
2023-04-12T05:32:45.575Z,5.80
2023-04-12T05:35:15.117Z,5.90
2023-04-12T05:37:43.895Z,5.60
2023-04-12T05:40:14.111Z,6.20
2023-04-12T05:42:42.897Z,6.00
2023-04-12T05:45:15.754Z,5.30
2023-04-12T05:47:45.710Z,5.10
2023-04-12T05:50:14.632Z,5.40
2023-04-12T05:52:44.721Z,5.00
2023-04-12T05:55:14.252Z,6.60
2023-04-12T05:57:44.584Z,5.00
2023-04-12T06:00:18.764Z,4.90
2023-04-12T06:02:48.322Z,4.40
2023-04-12T06:05:17.942Z,4.90
2023-04-12T06:07:49.811Z,4.40
2023-04-12T06:10:18.501Z,4.60
2023-04-12T06:12:50.871Z,4.50
2023-04-12T06:15:22.337Z,4.30
2023-04-12T06:17:56.765Z,4.40
2023-04-12T06:20:25.730Z,4.10
2023-04-12T06:22:54.561Z,4.40
2023-04-12T06:25:23.273Z,4.10
2023-04-12T06:27:54.350Z,4.90
2023-04-12T06:30:24.853Z,3.80
2023-04-12T06:32:54.902Z,4.70
2023-04-12T06:35:24.969Z,4.20
2023-04-12T06:37:53.587Z,4.20
2023-04-12T06:40:21.824Z,4.50
2023-04-12T06:42:51.923Z,4.40
2023-04-12T06:45:23.813Z,4.50
2023-04-12T06:47:52.033Z,4.50
2023-04-12T06:50:20.428Z,4.90
2023-04-12T06:52:50.048Z,5.00
2023-04-12T06:55:18.497Z,4.30
2023-04-12T06:57:46.882Z,4.40
2023-04-12T07:00:19.087Z,4.00
2023-04-12T07:02:48.167Z,4.10
2023-04-12T07:05:16.983Z,4.80
2023-04-12T07:07:47.527Z,4.40
2023-04-12T07:10:16.311Z,5.20
2023-04-12T07:12:44.524Z,4.60
2023-04-12T07:15:13.919Z,4.40
2023-04-12T07:17:43.240Z,4.40
2023-04-12T07:20:11.973Z,4.30
2023-04-12T07:22:43.216Z,5.30
2023-04-12T07:25:13.482Z,5.00
2023-04-12T07:27:41.714Z,5.10
2023-04-12T07:30:11.149Z,5.20
2023-04-12T07:32:39.964Z,5.40
2023-04-12T07:35:08.830Z,6.20
2023-04-12T07:37:38.066Z,6.50
2023-04-12T07:40:07.394Z,6.00
2023-04-12T07:42:37.033Z,4.80
2023-04-12T07:45:06.355Z,4.90
2023-04-12T07:47:36.260Z,4.90
2023-04-12T07:50:06.268Z,5.80
2023-04-12T07:52:35.097Z,3.90
2023-04-12T07:55:08.009Z,4.40
2023-04-12T07:57:36.682Z,4.40
2023-04-12T08:00:06.026Z,4.10
2023-04-12T08:02:41.812Z,4.60
2023-04-12T08:05:11.844Z,4.40
2023-04-12T08:07:46.625Z,4.80
2023-04-12T08:10:15.024Z,4.20
2023-04-12T08:12:43.939Z,3.90
2023-04-12T08:15:14.228Z,4.00
2023-04-12T08:17:44.157Z,4.10
2023-04-12T08:20:13.943Z,4.00
2023-04-12T08:22:43.121Z,4.60
2023-04-12T08:25:11.920Z,6.10
2023-04-12T08:27:42.294Z,4.50
2023-04-12T08:30:12.396Z,3.70
2023-04-12T08:32:41.990Z,3.40
2023-04-12T08:35:11.335Z,3.80
2023-04-12T08:37:39.828Z,4.00
2023-04-12T08:40:08.364Z,3.70
2023-04-12T08:42:37.767Z,4.10
2023-04-12T08:45:07.509Z,3.60
2023-04-12T08:47:39.473Z,4.70
2023-04-12T08:50:14.395Z,4.40
2023-04-12T08:52:44.190Z,5.30
2023-04-12T08:55:13.066Z,4.40
2023-04-12T08:57:41.950Z,3.80
2023-04-12T09:00:11.391Z,3.80
2023-04-12T09:02:47.319Z,4.30
2023-04-12T09:05:23.388Z,3.70
2023-04-12T09:08:09.712Z,4.20
2023-04-12T09:10:43.786Z,4.20
2023-04-12T09:13:12.285Z,4.30
2023-04-12T09:15:49.338Z,4.40
2023-04-12T09:18:23.412Z,4.20
2023-04-12T09:20:52.707Z,4.50
2023-04-12T09:23:26.372Z,5.60
2023-04-12T09:25:59.291Z,5.20
2023-04-12T09:28:29.989Z,4.30
2023-04-12T09:30:59.319Z,4.00
2023-04-12T09:33:32.764Z,3.50
2023-04-12T09:36:03.031Z,3.60
2023-04-12T09:38:31.988Z,4.20
2023-04-12T09:41:21.326Z,3.50
2023-04-12T09:43:52.363Z,3.40
2023-04-12T09:46:21.335Z,4.40
2023-04-12T09:48:51.441Z,3.60
2023-04-12T09:51:31.453Z,4.30
2023-04-12T09:54:02.335Z,3.80
2023-04-12T09:56:32.507Z,3.80
2023-04-12T09:59:05.890Z,3.20
2023-04-12T10:01:43.883Z,2.80
2023-04-12T10:04:12.681Z,2.70
2023-04-12T10:06:42.053Z,3.50
2023-04-12T10:09:10.377Z,3.80
2023-04-12T10:11:41.963Z,3.40
2023-04-12T10:14:11.933Z,3.50
2023-04-12T10:16:42.765Z,3.60
2023-04-12T10:19:11.413Z,4.70
2023-04-12T10:21:39.901Z,3.80
2023-04-12T10:24:11.238Z,3.30
2023-04-12T10:26:44.330Z,3.10
2023-04-12T10:29:33.855Z,3.10
2023-04-12T10:32:24.663Z,4.20
2023-04-12T10:35:00.926Z,3.40
2023-04-12T10:38:02.077Z,3.60
2023-04-12T10:40:32.416Z,4.00
2023-04-12T10:43:19.959Z,3.60
2023-04-12T10:45:52.287Z,3.20
2023-04-12T10:48:31.602Z,4.10
2023-04-12T10:51:26.925Z,3.90
2023-04-12T10:54:17.056Z,3.80
2023-04-12T10:56:46.808Z,4.00
2023-04-12T10:59:44.891Z,3.90
2023-04-12T11:02:36.721Z,3.40
2023-04-12T11:05:09.873Z,4.10
2023-04-12T11:07:53.539Z,3.60
2023-04-12T11:10:40.938Z,3.60
2023-04-12T11:13:14.730Z,4.00
2023-04-12T11:15:44.159Z,3.70
2023-04-12T11:18:15.949Z,3.30
2023-04-12T11:20:44.580Z,4.10
2023-04-12T11:23:15.829Z,3.80
2023-04-12T11:25:44.448Z,3.60
2023-04-12T11:28:27.988Z,3.30
2023-04-12T11:30:59.077Z,3.10
2023-04-12T11:33:40.053Z,4.00
2023-04-12T11:36:12.487Z,3.20
2023-04-12T11:41:11.741Z,3.60
2023-04-12T11:43:40.419Z,3.00
2023-04-12T11:46:08.917Z,4.00
2023-04-12T11:48:38.956Z,4.10
2023-04-12T11:51:21.346Z,4.00
2023-04-12T11:53:55.527Z,4.80
2023-04-12T11:56:24.189Z,4.20
2023-04-12T11:58:52.833Z,4.20
2023-04-12T12:01:22.350Z,4.70
2023-04-12T12:03:51.968Z,3.90
2023-04-12T12:06:21.012Z,4.40
2023-04-12T12:08:53.430Z,4.20
2023-04-12T12:11:22.376Z,4.10
2023-04-12T12:13:55.593Z,4.10
2023-04-12T12:16:25.610Z,4.60
2023-04-12T12:18:54.083Z,4.20
2023-04-12T12:21:23.364Z,4.40
2023-04-12T12:23:51.720Z,4.60
2023-04-12T12:26:25.792Z,4.70
2023-04-12T12:28:57.831Z,4.80
2023-04-12T12:31:28.838Z,4.10
2023-04-12T12:33:59.369Z,4.60
2023-04-12T12:36:38.993Z,5.20
2023-04-12T12:39:12.542Z,4.90
2023-04-12T12:41:41.425Z,4.20
2023-04-12T12:44:15.621Z,4.80
2023-04-12T12:46:55.170Z,4.80
2023-04-12T12:49:25.450Z,4.60
2023-04-12T12:51:55.049Z,4.90
2023-04-12T12:54:39.561Z,4.30
2023-04-12T12:57:09.366Z,4.10
2023-04-12T12:59:37.668Z,4.60
2023-04-12T13:02:07.576Z,4.20
2023-04-12T13:04:39.340Z,4.30
2023-04-12T13:07:08.981Z,3.80
2023-04-12T13:09:37.385Z,4.70
2023-04-12T13:12:11.773Z,3.80
2023-04-12T13:14:41.963Z,3.50
2023-04-12T13:17:10.591Z,3.30
2023-04-12T13:19:48.007Z,3.60
2023-04-12T13:22:19.601Z,3.70
2023-04-12T13:24:48.234Z,3.50
2023-04-12T13:27:21.552Z,3.10
2023-04-12T13:29:51.632Z,4.00
2023-04-12T13:32:20.324Z,3.30
2023-04-12T13:34:49.184Z,3.60
2023-04-12T13:37:17.523Z,3.40
2023-04-12T13:39:46.987Z,3.70
2023-04-12T13:42:15.245Z,3.90
2023-04-12T13:44:43.522Z,3.60
2023-04-12T13:47:13.563Z,4.80
2023-04-12T13:49:42.133Z,4.70
2023-04-12T13:52:10.619Z,3.90
2023-04-12T13:54:38.793Z,4.00
2023-04-12T13:57:08.195Z,4.40
2023-04-12T13:59:36.879Z,4.10
2023-04-12T14:02:05.664Z,5.10
2023-04-12T14:04:34.344Z,4.60
2023-04-12T14:07:02.961Z,4.30
2023-04-12T14:09:35.258Z,4.00
2023-04-12T14:12:03.651Z,3.70
2023-04-12T14:14:31.906Z,4.10
2023-04-12T14:17:02.085Z,4.80
2023-04-12T14:19:31.093Z,4.60
2023-04-12T14:21:59.517Z,4.60
2023-04-12T14:24:32.032Z,4.60
2023-04-12T14:27:01.224Z,4.80
2023-04-12T14:29:29.702Z,4.90
2023-04-12T14:32:01.458Z,5.10
2023-04-12T14:34:31.282Z,4.80
2023-04-12T14:37:00.514Z,4.00
2023-04-12T14:39:30.767Z,4.90
2023-04-12T14:41:59.110Z,5.50
2023-04-12T14:44:27.828Z,4.40
2023-04-12T14:46:56.270Z,4.90
2023-04-12T14:49:25.637Z,4.70
2023-04-12T14:51:54.659Z,4.40
2023-04-12T14:54:23.897Z,4.40
2023-04-12T14:56:55.775Z,5.10
2023-04-12T14:59:32.803Z,7.40
2023-04-12T15:02:02.118Z,5.60
2023-04-12T15:04:30.985Z,4.50
2023-04-12T15:07:04.792Z,5.00
2023-04-12T15:09:35.520Z,4.50
2023-04-12T15:12:04.471Z,4.90
2023-04-12T15:14:33.610Z,4.50
2023-04-12T15:17:03.711Z,4.60
2023-04-12T15:19:32.528Z,5.20
2023-04-12T15:22:01.245Z,4.60
2023-04-12T15:24:34.179Z,4.40
2023-04-12T15:27:05.845Z,5.00
2023-04-12T15:29:35.605Z,5.50
2023-04-12T15:32:04.958Z,5.40
2023-04-12T15:34:35.354Z,5.20
2023-04-12T15:37:03.706Z,5.00
2023-04-12T15:39:35.931Z,5.40
2023-04-12T15:42:05.387Z,5.10
2023-04-12T15:44:34.244Z,6.90
2023-04-12T15:47:11.005Z,5.70
2023-04-12T15:49:40.513Z,5.90
2023-04-12T15:52:09.311Z,5.00
2023-04-12T15:54:43.687Z,4.60
2023-04-12T15:57:12.669Z,4.60
2023-04-12T15:59:42.146Z,4.30
2023-04-12T16:02:12.631Z,4.30
2023-04-12T16:04:42.901Z,3.60
2023-04-12T16:07:11.684Z,3.60
2023-04-12T16:09:42.922Z,4.20
2023-04-12T16:12:12.018Z,3.70
2023-04-12T16:14:40.757Z,3.70
2023-04-12T16:17:10.075Z,3.70
2023-04-12T16:19:39.275Z,3.70
2023-04-12T16:22:08.819Z,3.90
2023-04-12T16:24:42.718Z,4.30
2023-04-12T16:27:11.087Z,5.20
2023-04-12T16:29:40.439Z,4.00
2023-04-12T16:32:14.942Z,4.10
2023-04-12T16:34:44.734Z,4.60
2023-04-12T16:37:13.190Z,4.70
2023-04-12T16:39:46.644Z,5.30
2023-04-12T16:42:21.183Z,6.20
2023-04-12T16:45:01.176Z,6.50
2023-04-12T16:47:40.165Z,6.70
2023-04-12T16:50:10.590Z,6.20
2023-04-12T16:52:41.945Z,6.10
2023-04-12T16:55:17.859Z,6.10
2023-04-12T16:57:49.913Z,6.10
2023-04-12T17:00:22.388Z,6.30
2023-04-12T17:02:52.583Z,6.20
2023-04-12T17:05:21.810Z,5.30
2023-04-12T17:07:51.911Z,5.70
2023-04-12T17:10:21.326Z,6.20
2023-04-12T17:12:51.438Z,7.10
2023-04-12T17:15:22.069Z,6.40
2023-04-12T17:18:02.404Z,6.30
2023-04-12T17:20:32.452Z,6.90
2023-04-12T17:23:00.946Z,6.70
2023-04-12T17:25:36.082Z,7.50
2023-04-12T17:28:05.221Z,6.60
2023-04-12T17:30:33.767Z,7.60
2023-04-12T17:33:07.540Z,7.10
2023-04-12T17:35:35.895Z,7.30
2023-04-12T17:38:03.978Z,7.50
2023-04-12T17:40:33.715Z,7.80
2023-04-12T17:43:03.660Z,8.10
2023-04-12T17:45:31.833Z,7.70
2023-04-12T17:48:00.523Z,6.90
2023-04-12T17:50:28.794Z,7.60
2023-04-12T17:52:58.964Z,6.00
2023-04-12T17:55:27.405Z,4.90
2023-04-12T17:57:55.903Z,4.80
2023-04-12T18:00:29.102Z,4.10
2023-04-12T18:02:57.790Z,3.60
2023-04-12T18:05:26.243Z,3.20
2023-04-12T18:07:57.137Z,3.50
2023-04-12T18:10:26.896Z,2.50
2023-04-12T18:12:55.831Z,2.50
2023-04-12T18:15:24.666Z,2.50
2023-04-12T18:17:55.822Z,2.70
2023-04-12T18:20:24.842Z,2.70
2023-04-12T18:22:53.387Z,2.70
2023-04-12T18:25:25.914Z,2.00
2023-04-12T18:27:55.763Z,2.20
2023-04-12T18:30:24.348Z,1.70
2023-04-12T18:32:53.658Z,1.60
2023-04-12T18:35:23.059Z,1.60
2023-04-12T18:37:52.565Z,1.20
2023-04-12T18:40:21.764Z,1.40
2023-04-12T18:42:50.634Z,1.80
2023-04-12T18:45:20.055Z,1.50
2023-04-12T18:47:48.129Z,2.20
2023-04-12T18:50:19.468Z,2.00
2023-04-12T18:52:47.564Z,1.90
2023-04-12T18:55:20.659Z,2.00
2023-04-12T18:57:49.846Z,2.60
2023-04-12T19:00:19.803Z,2.30
2023-04-12T19:02:49.092Z,3.00
2023-04-12T19:05:18.688Z,2.60
2023-04-12T19:07:47.362Z,3.20
2023-04-12T19:10:16.237Z,3.00
2023-04-12T19:12:46.188Z,3.20
2023-04-12T19:15:14.504Z,3.40
2023-04-12T19:17:43.564Z,3.40
2023-04-12T19:20:12.178Z,3.50
2023-04-12T19:22:40.499Z,3.30
2023-04-12T19:25:10.070Z,3.70
2023-04-12T19:27:40.942Z,3.90
2023-04-12T19:30:14.186Z,3.40
2023-04-12T19:32:49.367Z,3.80
2023-04-12T19:35:18.797Z,4.00
2023-04-12T19:37:47.386Z,4.00
2023-04-12T19:40:16.033Z,4.20
2023-04-12T19:42:44.471Z,4.20
2023-04-12T19:45:12.748Z,4.20
2023-04-12T19:47:47.354Z,4.60
2023-04-12T19:50:15.793Z,5.30
2023-04-12T19:52:44.232Z,4.20
2023-04-12T19:55:12.579Z,4.20
2023-04-12T19:57:42.146Z,4.40
2023-04-12T20:00:22.800Z,4.50
2023-04-12T20:02:53.403Z,4.60
2023-04-12T20:05:23.332Z,4.90
2023-04-12T20:07:55.300Z,4.50
2023-04-12T20:10:23.451Z,4.90
2023-04-12T20:12:51.726Z,5.90
2023-04-12T20:15:21.195Z,4.50
2023-04-12T20:17:52.118Z,5.20
2023-04-12T20:20:21.527Z,5.30
2023-04-12T20:22:52.226Z,4.60
2023-04-12T20:25:20.714Z,4.80
2023-04-12T20:27:52.319Z,4.70
2023-04-12T20:30:23.715Z,5.00
2023-04-12T20:33:01.484Z,4.80
2023-04-12T20:35:29.902Z,4.40
2023-04-12T20:37:58.032Z,4.80
2023-04-12T20:40:30.089Z,4.80
2023-04-12T20:42:59.922Z,4.60
2023-04-12T20:45:28.159Z,4.90
2023-04-12T20:47:56.372Z,5.00
2023-04-12T20:50:25.364Z,4.90
2023-04-12T20:52:56.394Z,5.10
2023-04-12T20:55:33.161Z,4.30
2023-04-12T20:58:03.504Z,5.20
2023-04-12T21:00:33.861Z,5.00
2023-04-12T21:03:03.137Z,5.20
2023-04-12T21:05:34.753Z,4.40
2023-04-12T21:08:07.139Z,4.90
2023-04-12T21:10:35.366Z,4.40
2023-04-12T21:13:03.535Z,5.00
2023-04-12T21:15:35.481Z,4.20
2023-04-12T21:18:04.495Z,4.50
2023-04-12T21:20:34.265Z,4.20
2023-04-12T21:23:04.295Z,4.10
2023-04-12T21:25:34.490Z,3.80
2023-04-12T21:28:03.608Z,4.90
2023-04-12T21:30:34.245Z,4.20
2023-04-12T21:33:04.494Z,4.70
2023-04-12T21:35:33.073Z,3.90
2023-04-12T21:38:01.832Z,4.30
2023-04-12T21:40:30.779Z,4.50
2023-04-12T21:43:02.204Z,5.40
2023-04-12T21:45:30.543Z,4.90
2023-04-12T21:47:59.793Z,4.70
2023-04-12T21:50:28.224Z,4.70
2023-04-12T21:52:56.442Z,4.60
2023-04-12T21:55:28.508Z,5.40
2023-04-12T21:57:56.643Z,4.50
2023-04-12T22:00:27.313Z,5.00
2023-04-12T22:02:56.651Z,4.60
2023-04-12T22:05:27.988Z,5.80
2023-04-12T22:07:58.094Z,4.90
2023-04-12T22:10:26.123Z,4.80
2023-04-12T22:12:56.369Z,5.00
2023-04-12T22:15:28.534Z,4.90
2023-04-12T22:17:57.080Z,5.00
2023-04-12T22:20:29.784Z,5.30
2023-04-12T22:22:58.472Z,5.00
2023-04-12T22:25:29.687Z,4.70
2023-04-12T22:27:58.326Z,5.20
2023-04-12T22:30:27.360Z,5.00
2023-04-12T22:32:55.780Z,5.40
2023-04-12T22:35:25.779Z,4.60
2023-04-12T22:37:53.872Z,4.40
2023-04-12T22:40:22.625Z,4.50
2023-04-12T22:42:50.651Z,4.90
2023-04-12T22:45:19.982Z,4.60
2023-04-12T22:47:48.507Z,4.80
2023-04-12T22:50:17.633Z,4.70
2023-04-12T22:52:50.109Z,4.70
2023-04-12T22:55:18.756Z,4.30
2023-04-12T22:57:49.504Z,6.00
2023-04-12T23:00:18.373Z,4.30
2023-04-12T23:02:47.879Z,5.30
2023-04-12T23:05:16.669Z,4.50
2023-04-12T23:07:49.461Z,5.20
2023-04-12T23:10:18.444Z,5.30
2023-04-12T23:12:49.369Z,5.50
2023-04-12T23:15:23.536Z,5.10
2023-04-12T23:17:52.373Z,5.10
2023-04-12T23:20:20.521Z,5.00
2023-04-12T23:22:57.467Z,5.30
2023-04-12T23:25:44.975Z,5.00
2023-04-12T23:28:14.301Z,4.80
2023-04-12T23:30:43.387Z,4.90
2023-04-12T23:33:12.427Z,4.40
2023-04-12T23:35:41.388Z,4.40
2023-04-12T23:38:15.723Z,4.30
2023-04-12T23:40:44.093Z,4.50
2023-04-12T23:43:12.642Z,5.70
2023-04-12T23:45:41.483Z,5.10
2023-04-12T23:48:09.956Z,5.10
2023-04-12T23:50:39.212Z,4.30
2023-04-12T23:53:07.601Z,4.50
2023-04-12T23:55:36.574Z,4.50
2023-04-12T23:58:04.786Z,4.90
